sensor_id;sensor_type;location;lat;lon;timestamp;P1;durP1;ratioP1;P2;durP2;ratioP2
16430;SDS011;8325;49.284;7.238;2023-10-09T04:01:49;8.70;;;4.85;;
16430;SDS011;8325;49.284;7.238;2023-10-09T04:06:04;8.63;;;4.32;;
16430;SDS011;8325;49.284;7.238;2023-10-09T04:10:20;9.07;;;5.07;;
16430;SDS011;8325;49.284;7.238;2023-10-09T04:14:44;6.93;;;4.35;;
16430;SDS011;8325;49.284;7.238;2023-10-09T04:19:06;7.47;;;4.55;;
16430;SDS011;8325;49.284;7.238;2023-10-09T04:23:22;7.28;;;4.85;;
16430;SDS011;8325;49.284;7.238;2023-10-09T04:27:46;9.38;;;5.13;;
16430;SDS011;8325;49.284;7.238;2023-10-09T04:31:58;11.55;;;5.05;;
16430;SDS011;8325;49.284;7.238;2023-10-09T04:36:12;9.90;;;4.95;;
16430;SDS011;8325;49.284;7.238;2023-10-09T04:40:46;7.55;;;4.28;;
16430;SDS011;8325;49.284;7.238;2023-10-09T04:45:04;8.30;;;4.57;;
16430;SDS011;8325;49.284;7.238;2023-10-09T04:49:18;7.53;;;4.30;;
16430;SDS011;8325;49.284;7.238;2023-10-09T04:53:39;10.38;;;4.57;;
16430;SDS011;8325;49.284;7.238;2023-10-09T04:58:01;9.57;;;4.93;;
16430;SDS011;8325;49.284;7.238;2023-10-09T05:02:14;8.13;;;4.90;;
16430;SDS011;8325;49.284;7.238;2023-10-09T05:06:30;8.88;;;5.32;;
16430;SDS011;8325;49.284;7.238;2023-10-09T05:11:05;10.82;;;5.32;;
16430;SDS011;8325;49.284;7.238;2023-10-09T05:15:29;10.60;;;4.90;;
16430;SDS011;8325;49.284;7.238;2023-10-09T05:19:45;9.32;;;5.53;;
16430;SDS011;8325;49.284;7.238;2023-10-09T05:24:06;9.50;;;5.43;;
16430;SDS011;8325;49.284;7.238;2023-10-09T05:28:25;9.57;;;6.03;;
16430;SDS011;8325;49.284;7.238;2023-10-09T05:32:42;11.10;;;5.57;;
16430;SDS011;8325;49.284;7.238;2023-10-09T05:37:00;10.18;;;5.80;;
16430;SDS011;8325;49.284;7.238;2023-10-09T05:41:43;9.88;;;5.88;;
16430;SDS011;8325;49.284;7.238;2023-10-09T05:46:04;10.20;;;5.85;;
16430;SDS011;8325;49.284;7.238;2023-10-09T05:50:21;10.02;;;5.30;;
16430;SDS011;8325;49.284;7.238;2023-10-09T05:54:33;10.98;;;5.63;;
16430;SDS011;8325;49.284;7.238;2023-10-09T05:59:03;11.15;;;5.55;;
16430;SDS011;8325;49.284;7.238;2023-10-09T06:03:14;9.95;;;5.38;;
16430;SDS011;8325;49.284;7.238;2023-10-09T06:07:33;9.13;;;5.70;;
16430;SDS011;8325;49.284;7.238;2023-10-09T06:12:00;8.18;;;5.22;;
16430;SDS011;8325;49.284;7.238;2023-10-09T06:16:31;9.65;;;5.22;;
16430;SDS011;8325;49.284;7.238;2023-10-09T06:20:53;13.38;;;5.95;;
16430;SDS011;8325;49.284;7.238;2023-10-09T06:25:35;10.35;;;6.68;;
16430;SDS011;8325;49.284;7.238;2023-10-09T06:29:50;10.65;;;5.97;;
16430;SDS011;8325;49.284;7.238;2023-10-09T06:34:02;10.25;;;6.65;;
16430;SDS011;8325;49.284;7.238;2023-10-09T06:38:27;10.00;;;6.22;;
16430;SDS011;8325;49.284;7.238;2023-10-09T06:42:51;12.35;;;6.13;;
16430;SDS011;8325;49.284;7.238;2023-10-09T06:47:06;10.60;;;5.85;;
16430;SDS011;8325;49.284;7.238;2023-10-09T06:51:19;9.48;;;5.57;;
16430;SDS011;8325;49.284;7.238;2023-10-09T06:55:38;9.50;;;6.20;;
16430;SDS011;8325;49.284;7.238;2023-10-09T07:00:16;12.27;;;6.50;;
16430;SDS011;8325;49.284;7.238;2023-10-09T07:04:46;9.20;;;6.00;;
16430;SDS011;8325;49.284;7.238;2023-10-09T07:08:58;11.95;;;5.97;;
16430;SDS011;8325;49.284;7.238;2023-10-09T07:13:16;13.88;;;6.18;;
16430;SDS011;8325;49.284;7.238;2023-10-09T07:17:29;13.35;;;7.13;;
16430;SDS011;8325;49.284;7.238;2023-10-09T07:22:01;13.93;;;7.95;;
16430;SDS011;8325;49.284;7.238;2023-10-09T07:26:27;13.27;;;4.95;;
16430;SDS011;8325;49.284;7.238;2023-10-09T07:30:48;12.95;;;4.88;;
16430;SDS011;8325;49.284;7.238;2023-10-09T07:35:07;13.80;;;5.05;;
16430;SDS011;8325;49.284;7.238;2023-10-09T07:39:20;11.63;;;4.68;;
16430;SDS011;8325;49.284;7.238;2023-10-09T07:43:34;8.55;;;4.38;;
16430;SDS011;8325;49.284;7.238;2023-10-09T07:47:50;8.48;;;4.43;;
16430;SDS011;8325;49.284;7.238;2023-10-09T07:52:16;11.23;;;4.60;;
16430;SDS011;8325;49.284;7.238;2023-10-09T07:56:28;7.63;;;4.65;;
16430;SDS011;8325;49.284;7.238;2023-10-09T08:00:49;13.35;;;4.88;;
16430;SDS011;8325;49.284;7.238;2023-10-09T08:05:17;10.05;;;5.25;;
16430;SDS011;8325;49.284;7.238;2023-10-09T08:09:33;10.45;;;4.47;;
16430;SDS011;8325;49.284;7.238;2023-10-09T08:13:58;9.48;;;4.40;;
16430;SDS011;8325;49.284;7.238;2023-10-09T08:18:14;12.27;;;4.00;;
16430;SDS011;8325;49.284;7.238;2023-10-09T08:22:39;7.45;;;4.22;;
16430;SDS011;8325;49.284;7.238;2023-10-09T08:27:03;8.70;;;4.10;;
16430;SDS011;8325;49.284;7.238;2023-10-09T08:31:33;8.45;;;4.30;;
16430;SDS011;8325;49.284;7.238;2023-10-09T08:35:57;10.60;;;4.80;;
16430;SDS011;8325;49.284;7.238;2023-10-09T08:40:27;8.75;;;4.10;;
16430;SDS011;8325;49.284;7.238;2023-10-09T08:44:44;10.77;;;3.67;;
16430;SDS011;8325;49.284;7.238;2023-10-09T08:49:00;10.98;;;4.40;;
16430;SDS011;8325;49.284;7.238;2023-10-09T08:53:16;10.68;;;4.55;;
16430;SDS011;8325;49.284;7.238;2023-10-09T08:57:28;13.18;;;4.60;;
16430;SDS011;8325;49.284;7.238;2023-10-09T09:01:42;11.73;;;3.95;;
16430;SDS011;8325;49.284;7.238;2023-10-09T09:06:00;7.95;;;4.45;;
16430;SDS011;8325;49.284;7.238;2023-10-09T09:10:12;12.55;;;4.57;;
16430;SDS011;8325;49.284;7.238;2023-10-09T09:14:36;10.23;;;4.50;;
16430;SDS011;8325;49.284;7.238;2023-10-09T09:18:49;12.20;;;4.55;;
16430;SDS011;8325;49.284;7.238;2023-10-09T09:23:20;10.82;;;3.80;;
16430;SDS011;8325;49.284;7.238;2023-10-09T09:27:44;11.35;;;3.65;;
16430;SDS011;8325;49.284;7.238;2023-10-09T09:32:05;7.43;;;3.50;;
16430;SDS011;8325;49.284;7.238;2023-10-09T09:36:33;7.57;;;3.60;;
16430;SDS011;8325;49.284;7.238;2023-10-09T09:40:45;6.43;;;3.53;;
16430;SDS011;8325;49.284;7.238;2023-10-09T09:44:57;5.97;;;3.10;;
16430;SDS011;8325;49.284;7.238;2023-10-09T09:49:10;7.60;;;4.25;;
16430;SDS011;8325;49.284;7.238;2023-10-09T09:53:28;8.57;;;3.95;;
16430;SDS011;8325;49.284;7.238;2023-10-09T09:57:46;9.38;;;3.28;;
16430;SDS011;8325;49.284;7.238;2023-10-09T10:02:03;7.18;;;3.60;;
16430;SDS011;8325;49.284;7.238;2023-10-09T10:06:19;6.72;;;3.58;;
16430;SDS011;8325;49.284;7.238;2023-10-09T10:10:36;6.47;;;3.30;;
16430;SDS011;8325;49.284;7.238;2023-10-09T10:15:04;10.20;;;3.60;;
16430;SDS011;8325;49.284;7.238;2023-10-09T10:28:40;8.55;;;3.80;;
16430;SDS011;8325;49.284;7.238;2023-10-09T10:33:00;4.55;;;3.35;;
16430;SDS011;8325;49.284;7.238;2023-10-09T10:37:34;9.25;;;4.05;;
16430;SDS011;8325;49.284;7.238;2023-10-09T10:41:52;5.03;;;3.00;;
16430;SDS011;8325;49.284;7.238;2023-10-09T10:46:08;7.63;;;3.15;;
16430;SDS011;8325;49.284;7.238;2023-10-09T10:50:36;7.80;;;3.38;;
16430;SDS011;8325;49.284;7.238;2023-10-09T10:54:48;8.18;;;3.72;;
16430;SDS011;8325;49.284;7.238;2023-10-09T10:59:39;9.32;;;4.10;;
16430;SDS011;8325;49.284;7.238;2023-10-09T11:03:53;7.97;;;4.03;;
16430;SDS011;8325;49.284;7.238;2023-10-09T11:08:11;7.05;;;3.88;;
16430;SDS011;8325;49.284;7.238;2023-10-09T11:12:22;6.53;;;3.30;;
16430;SDS011;8325;49.284;7.238;2023-10-09T11:16:35;7.22;;;3.47;;
16430;SDS011;8325;49.284;7.238;2023-10-09T11:20:55;5.65;;;3.25;;
16430;SDS011;8325;49.284;7.238;2023-10-09T11:25:14;6.30;;;3.65;;
16430;SDS011;8325;49.284;7.238;2023-10-09T11:29:29;6.38;;;3.50;;
16430;SDS011;8325;49.284;7.238;2023-10-09T11:34:01;10.93;;;3.70;;
16430;SDS011;8325;49.284;7.238;2023-10-09T11:38:13;7.45;;;3.75;;
16430;SDS011;8325;49.284;7.238;2023-10-09T11:42:34;5.97;;;4.13;;
16430;SDS011;8325;49.284;7.238;2023-10-09T11:47:01;8.10;;;3.80;;
16430;SDS011;8325;49.284;7.238;2023-10-09T11:51:31;7.28;;;3.63;;
16430;SDS011;8325;49.284;7.238;2023-10-09T11:55:44;7.05;;;3.67;;
16430;SDS011;8325;49.284;7.238;2023-10-09T12:00:00;7.82;;;3.70;;
16430;SDS011;8325;49.284;7.238;2023-10-09T12:04:21;7.32;;;3.75;;
16430;SDS011;8325;49.284;7.238;2023-10-09T12:08:41;8.23;;;3.42;;
16430;SDS011;8325;49.284;7.238;2023-10-09T12:12:53;6.45;;;3.83;;
16430;SDS011;8325;49.284;7.238;2023-10-09T12:17:09;6.72;;;3.83;;
16430;SDS011;8325;49.284;7.238;2023-10-09T12:21:21;6.25;;;3.65;;
16430;SDS011;8325;49.284;7.238;2023-10-09T12:25:33;7.07;;;3.78;;
16430;SDS011;8325;49.284;7.238;2023-10-09T12:29:46;6.03;;;3.38;;
16430;SDS011;8325;49.284;7.238;2023-10-09T12:34:00;8.05;;;3.60;;
16430;SDS011;8325;49.284;7.238;2023-10-09T12:38:13;7.07;;;3.72;;
16430;SDS011;8325;49.284;7.238;2023-10-09T12:42:29;5.18;;;3.53;;
16430;SDS011;8325;49.284;7.238;2023-10-09T12:46:44;6.75;;;3.53;;
16430;SDS011;8325;49.284;7.238;2023-10-09T12:51:05;6.57;;;3.15;;
16430;SDS011;8325;49.284;7.238;2023-10-09T12:55:17;7.38;;;3.58;;
16430;SDS011;8325;49.284;7.238;2023-10-09T12:59:32;8.82;;;3.92;;
16430;SDS011;8325;49.284;7.238;2023-10-09T13:03:43;6.50;;;3.60;;
16430;SDS011;8325;49.284;7.238;2023-10-09T13:07:55;12.82;;;4.03;;
16430;SDS011;8325;49.284;7.238;2023-10-09T13:12:13;10.15;;;4.35;;
16430;SDS011;8325;49.284;7.238;2023-10-09T13:16:30;6.45;;;3.92;;
16430;SDS011;8325;49.284;7.238;2023-10-09T13:20:43;7.15;;;3.63;;
16430;SDS011;8325;49.284;7.238;2023-10-09T13:24:56;6.88;;;3.63;;
16430;SDS011;8325;49.284;7.238;2023-10-09T13:29:15;7.82;;;3.83;;
16430;SDS011;8325;49.284;7.238;2023-10-09T13:33:33;7.57;;;3.60;;
16430;SDS011;8325;49.284;7.238;2023-10-09T13:37:48;7.35;;;4.20;;
16430;SDS011;8325;49.284;7.238;2023-10-09T13:42:05;7.28;;;3.42;;
16430;SDS011;8325;49.284;7.238;2023-10-09T13:46:18;7.70;;;3.42;;
16430;SDS011;8325;49.284;7.238;2023-10-09T13:50:31;8.07;;;3.75;;
16430;SDS011;8325;49.284;7.238;2023-10-09T13:54:46;6.50;;;3.60;;
16430;SDS011;8325;49.284;7.238;2023-10-09T13:59:01;6.90;;;3.50;;
16430;SDS011;8325;49.284;7.238;2023-10-09T14:03:13;6.45;;;3.38;;
16430;SDS011;8325;49.284;7.238;2023-10-09T14:07:25;8.90;;;3.53;;
16430;SDS011;8325;49.284;7.238;2023-10-09T14:11:36;7.85;;;3.70;;
16430;SDS011;8325;49.284;7.238;2023-10-09T14:15:56;6.35;;;3.60;;
16430;SDS011;8325;49.284;7.238;2023-10-09T14:20:09;7.78;;;3.45;;
16430;SDS011;8325;49.284;7.238;2023-10-09T14:24:42;8.55;;;3.88;;
16430;SDS011;8325;49.284;7.238;2023-10-09T14:28:57;6.72;;;3.20;;
16430;SDS011;8325;49.284;7.238;2023-10-09T14:33:12;7.38;;;3.70;;
16430;SDS011;8325;49.284;7.238;2023-10-09T14:37:24;7.43;;;3.53;;
16430;SDS011;8325;49.284;7.238;2023-10-09T14:41:35;5.93;;;3.45;;
16430;SDS011;8325;49.284;7.238;2023-10-09T14:45:47;9.40;;;3.58;;
16430;SDS011;8325;49.284;7.238;2023-10-09T14:50:00;7.20;;;3.85;;
16430;SDS011;8325;49.284;7.238;2023-10-09T14:54:15;6.85;;;3.70;;
16430;SDS011;8325;49.284;7.238;2023-10-09T14:58:29;6.05;;;3.95;;
16430;SDS011;8325;49.284;7.238;2023-10-09T15:02:44;6.82;;;3.80;;
16430;SDS011;8325;49.284;7.238;2023-10-09T15:06:56;7.82;;;3.75;;
16430;SDS011;8325;49.284;7.238;2023-10-09T15:11:08;7.13;;;3.67;;
16430;SDS011;8325;49.284;7.238;2023-10-09T15:15:20;6.60;;;3.38;;
16430;SDS011;8325;49.284;7.238;2023-10-09T15:19:36;7.53;;;3.85;;
16430;SDS011;8325;49.284;7.238;2023-10-09T15:23:49;6.25;;;3.60;;
16430;SDS011;8325;49.284;7.238;2023-10-09T15:28:02;6.40;;;3.63;;
16430;SDS011;8325;49.284;7.238;2023-10-09T15:32:14;7.32;;;4.07;;
16430;SDS011;8325;49.284;7.238;2023-10-09T15:36:26;8.18;;;4.13;;
16430;SDS011;8325;49.284;7.238;2023-10-09T15:40:42;6.40;;;3.92;;
16430;SDS011;8325;49.284;7.238;2023-10-09T15:44:55;7.55;;;4.05;;
16430;SDS011;8325;49.284;7.238;2023-10-09T15:49:06;6.50;;;3.75;;
16430;SDS011;8325;49.284;7.238;2023-10-09T15:53:20;6.70;;;3.45;;
16430;SDS011;8325;49.284;7.238;2023-10-09T15:57:33;9.43;;;3.58;;
16430;SDS011;8325;49.284;7.238;2023-10-09T16:01:44;7.13;;;3.60;;
16430;SDS011;8325;49.284;7.238;2023-10-09T16:05:57;7.88;;;3.95;;
16430;SDS011;8325;49.284;7.238;2023-10-09T16:10:10;9.57;;;4.07;;
16430;SDS011;8325;49.284;7.238;2023-10-09T16:14:22;6.63;;;4.20;;
16430;SDS011;8325;49.284;7.238;2023-10-09T16:18:35;7.57;;;3.90;;
16430;SDS011;8325;49.284;7.238;2023-10-09T16:22:49;6.90;;;3.88;;
16430;SDS011;8325;49.284;7.238;2023-10-09T16:27:01;6.68;;;3.60;;
16430;SDS011;8325;49.284;7.238;2023-10-09T16:31:15;8.48;;;3.75;;
16430;SDS011;8325;49.284;7.238;2023-10-09T16:35:30;8.32;;;3.85;;
16430;SDS011;8325;49.284;7.238;2023-10-09T16:39:45;7.85;;;4.47;;
16430;SDS011;8325;49.284;7.238;2023-10-09T16:43:57;8.07;;;4.72;;
16430;SDS011;8325;49.284;7.238;2023-10-09T16:48:10;8.55;;;5.03;;
16430;SDS011;8325;49.284;7.238;2023-10-09T16:52:22;9.55;;;5.30;;
16430;SDS011;8325;49.284;7.238;2023-10-09T16:56:34;8.27;;;4.95;;
16430;SDS011;8325;49.284;7.238;2023-10-09T17:00:46;9.35;;;4.85;;
16430;SDS011;8325;49.284;7.238;2023-10-09T17:04:58;10.13;;;4.85;;
16430;SDS011;8325;49.284;7.238;2023-10-09T17:09:10;8.73;;;5.10;;
16430;SDS011;8325;49.284;7.238;2023-10-09T17:13:24;9.30;;;4.57;;
16430;SDS011;8325;49.284;7.238;2023-10-09T17:17:37;9.02;;;4.85;;
16430;SDS011;8325;49.284;7.238;2023-10-09T17:21:50;7.38;;;5.07;;
16430;SDS011;8325;49.284;7.238;2023-10-09T17:26:02;10.88;;;5.70;;
16430;SDS011;8325;49.284;7.238;2023-10-09T17:30:14;10.02;;;5.05;;
16430;SDS011;8325;49.284;7.238;2023-10-09T17:34:27;8.57;;;5.25;;
16430;SDS011;8325;49.284;7.238;2023-10-09T17:38:38;9.30;;;5.28;;
16430;SDS011;8325;49.284;7.238;2023-10-09T17:42:50;12.35;;;6.45;;
16430;SDS011;8325;49.284;7.238;2023-10-09T17:47:04;12.02;;;6.88;;
16430;SDS011;8325;49.284;7.238;2023-10-09T17:51:16;10.57;;;6.57;;
16430;SDS011;8325;49.284;7.238;2023-10-09T17:55:30;9.35;;;5.80;;
16430;SDS011;8325;49.284;7.238;2023-10-09T17:59:42;9.82;;;6.60;;
16430;SDS011;8325;49.284;7.238;2023-10-09T18:03:54;12.27;;;7.60;;
16430;SDS011;8325;49.284;7.238;2023-10-09T18:08:10;13.60;;;7.93;;
16430;SDS011;8325;49.284;7.238;2023-10-09T18:12:26;12.23;;;7.15;;
16430;SDS011;8325;49.284;7.238;2023-10-09T18:16:37;13.07;;;7.40;;
16430;SDS011;8325;49.284;7.238;2023-10-09T18:20:49;9.90;;;6.95;;
16430;SDS011;8325;49.284;7.238;2023-10-09T18:25:02;13.00;;;7.25;;
16430;SDS011;8325;49.284;7.238;2023-10-09T18:29:14;10.77;;;6.75;;
16430;SDS011;8325;49.284;7.238;2023-10-09T18:33:28;10.70;;;7.28;;
16430;SDS011;8325;49.284;7.238;2023-10-09T18:37:40;12.45;;;7.00;;
16430;SDS011;8325;49.284;7.238;2023-10-09T18:41:52;13.07;;;8.35;;
16430;SDS011;8325;49.284;7.238;2023-10-09T18:46:06;14.77;;;8.65;;
16430;SDS011;8325;49.284;7.238;2023-10-09T18:50:20;17.15;;;10.43;;
16430;SDS011;8325;49.284;7.238;2023-10-09T18:54:32;17.23;;;11.35;;
16430;SDS011;8325;49.284;7.238;2023-10-09T18:58:47;17.02;;;10.43;;
16430;SDS011;8325;49.284;7.238;2023-10-09T19:03:02;17.02;;;9.95;;
16430;SDS011;8325;49.284;7.238;2023-10-09T19:07:21;14.75;;;9.52;;
16430;SDS011;8325;49.284;7.238;2023-10-09T19:11:33;15.57;;;10.43;;
16430;SDS011;8325;49.284;7.238;2023-10-09T19:15:50;15.82;;;10.35;;
16430;SDS011;8325;49.284;7.238;2023-10-09T19:20:03;17.33;;;10.45;;
16430;SDS011;8325;49.284;7.238;2023-10-09T19:24:21;15.02;;;9.35;;
16430;SDS011;8325;49.284;7.238;2023-10-09T19:28:33;14.55;;;8.35;;
16430;SDS011;8325;49.284;7.238;2023-10-09T19:32:45;11.98;;;7.20;;
16430;SDS011;8325;49.284;7.238;2023-10-09T19:36:59;9.18;;;6.03;;
16430;SDS011;8325;49.284;7.238;2023-10-09T19:41:10;9.32;;;5.93;;
16430;SDS011;8325;49.284;7.238;2023-10-09T19:45:23;9.88;;;5.15;;
16430;SDS011;8325;49.284;7.238;2023-10-09T19:49:34;11.30;;;5.00;;
16430;SDS011;8325;49.284;7.238;2023-10-09T19:53:50;10.38;;;4.80;;
16430;SDS011;8325;49.284;7.238;2023-10-09T19:58:03;6.65;;;4.45;;
16430;SDS011;8325;49.284;7.238;2023-10-09T20:02:15;9.40;;;4.43;;
16430;SDS011;8325;49.284;7.238;2023-10-09T20:06:27;10.77;;;4.55;;
16430;SDS011;8325;49.284;7.238;2023-10-09T20:10:42;8.90;;;5.13;;
16430;SDS011;8325;49.284;7.238;2023-10-09T20:14:54;8.23;;;4.20;;
16430;SDS011;8325;49.284;7.238;2023-10-09T20:19:06;8.20;;;4.60;;
16430;SDS011;8325;49.284;7.238;2023-10-09T20:23:19;8.75;;;4.75;;
16430;SDS011;8325;49.284;7.238;2023-10-09T20:27:32;7.72;;;4.78;;
16430;SDS011;8325;49.284;7.238;2023-10-09T20:31:46;7.22;;;4.47;;
16430;SDS011;8325;49.284;7.238;2023-10-09T20:36:02;9.30;;;4.95;;
16430;SDS011;8325;49.284;7.238;2023-10-09T20:40:16;7.40;;;4.63;;
16430;SDS011;8325;49.284;7.238;2023-10-09T20:44:32;7.25;;;5.13;;
16430;SDS011;8325;49.284;7.238;2023-10-09T20:48:44;10.95;;;5.50;;
16430;SDS011;8325;49.284;7.238;2023-10-09T20:52:58;10.07;;;5.45;;
16430;SDS011;8325;49.284;7.238;2023-10-09T20:57:10;8.57;;;5.68;;
16430;SDS011;8325;49.284;7.238;2023-10-09T21:01:25;9.35;;;5.90;;
16430;SDS011;8325;49.284;7.238;2023-10-09T21:05:37;9.98;;;5.50;;
16430;SDS011;8325;49.284;7.238;2023-10-09T21:09:50;10.75;;;5.90;;
16430;SDS011;8325;49.284;7.238;2023-10-09T21:14:02;9.85;;;5.88;;
16430;SDS011;8325;49.284;7.238;2023-10-09T21:18:16;12.07;;;6.38;;
16430;SDS011;8325;49.284;7.238;2023-10-09T21:22:28;10.07;;;6.30;;
16430;SDS011;8325;49.284;7.238;2023-10-09T21:26:41;11.57;;;6.13;;
